Tuesday, September 18, 2018, 11:22 PM EDT
Back to Local

KSYR, Syracuse Hancock International Airport

Location: Syracuse, NY, United States Lat: 43.117
Local Time: 11:22 PM EDT ( 3:22 GMT) Lon: -76.1
Time Zone: US/Eastern Elev: 410 ft

Show me the last for .
Show Decoded

2018-09-18 22:54 METAR KSYR 190254Z 00000KT 7SM FEW046 18/18 A2987 RMK AO2 SLP108 T01830183 53007
                 $ =
2018-09-18 21:54 METAR KSYR 190154Z 00000KT 9SM FEW160 19/19 A2986 RMK AO2 SLP104 T01940194 =
2018-09-18 20:54 METAR KSYR 190054Z 27003KT 10SM FEW160 21/21 A2985 RMK AO2 SLP103 T02060206 =
2018-09-18 19:54 METAR KSYR 182354Z 31006KT 10SM FEW033 FEW070 SCT160 21/21 A2984 RMK AO2 SLP100
                 T02110206 10272 20211 53013 =
2018-09-18 18:54 METAR KSYR 182254Z 31007KT 10SM FEW033 FEW070 SCT160 23/21 A2983 RMK AO2 SLP095
                 T02330206 =
2018-09-18 17:54 METAR KSYR 182154Z 27008KT 10SM FEW033 FEW070 BKN160 25/21 A2981 RMK AO2 SLP088
                 T02500206 =
2018-09-18 16:54 METAR KSYR 182054Z 28012KT 10SM SCT033 BKN070 BKN160 25/21 A2980 RMK AO2 SLP087
                 T02500211 56003 =
2018-09-18 15:54 METAR KSYR 181954Z 31010KT 10SM SCT033 BKN070 BKN160 26/21 A2980 RMK AO2 SLP087
                 T02560206 =
2018-09-18 14:54 METAR KSYR 181854Z 31011KT 10SM FEW030 SCT036 BKN070 BKN160 27/22 A2981 RMK AO2
                 SLP089 T02720217 =
2018-09-18 13:54 METAR KSYR 181754Z 33006KT 10SM SCT025 BKN034 BKN045 25/22 A2981 RMK AO2 SLP090
                 T02500217 10267 20200 56008 =
2018-09-18 12:54 METAR KSYR 181654Z 00000KT 10SM SCT020 BKN030 BKN045 25/22 A2982 RMK AO2 SLP091
                 T02500222 =
2018-09-18 12:29 METAR KSYR 181629Z 23005KT 10SM SCT019 BKN027 24/22 A2982 RMK AO2 T02440222 =
2018-09-18 11:54 METAR KSYR 181554Z 27005KT 10SM BKN018 OVC022 23/22 A2982 RMK AO2 SLP094
                 T02330217 =
2018-09-18 11:14 METAR KSYR 181514Z 28006KT 10SM BKN015 BKN021 OVC032 23/22 A2983 RMK AO2
                 T02330217 =
2018-09-18 10:54 METAR KSYR 181454Z 28005KT 10SM BKN013 BKN018 OVC030 23/22 A2984 RMK AO2 SLP098
                 T02330217 56001 =
2018-09-18 10:43 METAR KSYR 181443Z 27007KT 10SM SCT011 BKN016 BKN030 OVC180 23/22 A2984 RMK AO2
                 T02330217 =
2018-09-18 10:32 METAR KSYR 181432Z 26006KT 10SM SCT010 BKN030 BKN250 23/22 A2984 RMK AO2
                 T02330222 =
2018-09-18 10:21 METAR KSYR 181421Z COR 26007KT 10SM BKN010 BKN250 23/22 A2984 =
2018-09-18 10:06 METAR KSYR 181406Z 26006KT 10SM BKN009 22/22 A2984 RMK AO2 BKN V SCT T02220217 =
2018-09-18 09:54 METAR KSYR 181354Z 26006KT 10SM SCT008 22/22 A2984 RMK AO2 SLP098 SCT V BKN
                 T02170217 =
2018-09-18 09:01 METAR KSYR 181301Z 26007KT 6SM BR BKN005 21/21 A2984 =
2018-09-18 08:54 METAR KSYR 181254Z 24005KT 1 1/2SM BR BKN005 21/21 A2984 RMK AO2 SFC VIS 6
                 SLP098 T02060206 $ =
2018-09-18 08:44 METAR KSYR 181244Z 26005KT 1 1/2SM BR BKN005 21/21 A2984 RMK AO2 SFC VIS 6
                 T02060206 $
2018-09-18 08:29 METAR KSYR 181229Z 22003KT 1 1/2SM BR BKN003 21/21 A2983 RMK AO2 SFC VIS 4
                 T02060206 $ =
2018-09-18 07:54 METAR KSYR 181154Z 24003KT 1/2SM R28/6000VP6000FT BR BKN004 OVC048 19/19 A2984
                 RMK AO2 SFC VIS 2 SLP099 60001 70031 T01940194 10200 20189 53001 $ =
2018-09-18 07:36 METAR KSYR 181136Z 00000KT 7SM BKN004 OVC048 20/20 A2984 RMK AO2 T02000200 =
2018-09-18 06:58 METAR KSYR 181058Z 00000KT 10SM SCT005 BKN029 BKN200 19/19 A2984 RMK AO2
                 T01940194 $ =
2018-09-18 06:54 METAR KSYR 181054Z 00000KT 10SM BKN005 BKN030 OVC200 19/19 A2984 RMK AO2 SLP098
                 T01940194 $ =
2018-09-18 06:38 METAR KSYR 181038Z 00000KT 10SM BKN005 OVC027 19/19 A2983 =
2018-09-18 06:01 METAR KSYR 181001Z 00000KT 10SM BKN004 OVC055 19/19 A2983 =
2018-09-18 05:54 METAR KSYR 180954Z 00000KT 10SM SCT004 BKN055 OVC065 19/19 A2983 RMK AO2 RAE31
                 SLP095 P0000 T01940194 $ =
2018-09-18 04:54 METAR KSYR 180854Z 00000KT 10SM -RA FEW004 SCT032 OVC065 19/19 A2984 RMK AO2
                 RAB11 SLP098 P0000 60001 T01940194 58008 $ =
2018-09-18 03:54 METAR KSYR 180754Z 36003KT 10SM SCT005 BKN075 OVC090 19/19 A2984 RMK AO2 RAE35
                 SLP101 P0000 T01940194 $ =
2018-09-18 02:54 METAR KSYR 180654Z 00000KT 10SM -RA FEW005 SCT075 BKN120 OVC140 19/19 A2986 RMK
                 AO2 SLP105 P0001 T01940194 $ =
2018-09-18 02:29 METAR KSYR 180629Z 10004KT 10SM -RA FEW005 SCT075 BKN120 OVC140 19/19 A2986 RMK
                 AO2 P0000 T01940194 $ =
2018-09-18 01:54 METAR KSYR 180554Z 10005KT 10SM -RA FEW025 SCT120 OVC150 19/19 A2986 RMK AO2
                 SLP106 P0008 60030 T01940194 10233 20194 58010 $ =
2018-09-18 00:54 METAR KSYR 180454Z 04003KT 7SM RA SCT075 BKN110 OVC130 19/19 A2988 RMK AO2
                 SLP114 P0009 T01940194 402670167 $ =
2018-09-17 23:54 METAR KSYR 180354Z 05003KT 8SM -RA BKN046 BKN060 OVC100 19/19 A2989 RMK AO2
                 SLP117 P0005 T01940194 $ =

Support USWX by starting your Amazon purchase here.